Time;durP1;ratioP1;P1;durP2;ratioP2;P2;SDS_P1;SDS_P2;PMS_P1;PMS_P2;Temp;Humidity;BMP_temperature;BMP_pressure;BME280_temperature;BME280_humidity;BME280_pressure;Samples;Min_cycle;Max_cycle;Signal;HPM_P1;HPM_P2
2023/04/27 00:01:48;;;;;;;5.30;3.55;;;;;;;10.57;45.78;100354.94;10252043;28;20483;-74
2023/04/27 00:06:50;;;;;;;6.20;4.00;;;;;;;10.46;45.78;100356.72;10266634;28;20282;-75
2023/04/27 00:11:51;;;;;;;8.20;4.10;;;;;;;10.45;45.91;100355.91;10267547;28;20157;-69
2023/04/27 00:16:54;;;;;;;6.50;3.90;;;;;;;10.44;46.14;100349.72;10268969;28;20050;-70
2023/04/27 00:21:56;;;;;;;4.68;2.72;;;;;;;10.34;46.17;100337.25;10273388;28;20113;-74
2023/04/27 00:26:58;;;;;;;5.53;3.20;;;;;;;10.32;46.02;100324.03;10274566;28;20046;-68
2023/04/27 00:31:59;;;;;;;6.63;3.50;;;;;;;10.19;46.27;100326.81;10275993;28;20066;-69
2023/04/27 00:37:01;;;;;;;4.22;3.17;;;;;;;10.20;46.36;100330.31;10275012;28;20061;-72
2023/04/27 00:42:03;;;;;;;7.00;5.07;;;;;;;10.10;46.65;100324.84;10273587;28;20065;-70
2023/04/27 00:47:04;;;;;;;4.80;2.95;;;;;;;10.14;46.69;100331.63;10277575;28;20077;-71
2023/04/27 00:52:06;;;;;;;4.53;3.17;;;;;;;10.07;46.89;100330.41;10261447;28;20141;-73
2023/04/27 00:57:08;;;;;;;4.68;3.03;;;;;;;10.07;46.98;100327.75;10317292;28;20284;-73
2023/04/27 01:02:11;;;;;;;5.97;3.53;;;;;;;10.02;46.91;100340.56;10321459;28;20237;-74
2023/04/27 01:07:12;;;;;;;5.95;3.03;;;;;;;9.91;46.88;100350.22;10285047;28;20055;-74
2023/04/27 01:12:13;;;;;;;6.00;3.55;;;;;;;9.82;47.03;100348.25;10254510;28;20054;-72
2023/04/27 01:17:17;;;;;;;3.53;3.22;;;;;;;9.77;47.59;100346.91;10268160;28;20133;-71
2023/04/27 01:22:18;;;;;;;9.32;3.70;;;;;;;9.77;47.59;100346.91;10272485;28;20054;-71
2023/04/27 01:27:19;;;;;;;4.75;3.25;;;;;;;9.84;47.34;100353.47;10260559;28;20053;-73
2023/04/27 01:32:21;;;;;;;4.22;3.10;;;;;;;9.82;47.77;100348.25;10273820;28;20062;-70
2023/04/27 01:37:23;;;;;;;4.00;3.15;;;;;;;9.82;47.64;100350.06;10243301;28;20604;-71
2023/04/27 01:42:24;;;;;;;6.20;3.30;;;;;;;9.77;47.94;100358.38;10281313;28;20134;-73
2023/04/27 01:47:26;;;;;;;6.80;3.20;;;;;;;9.75;47.87;100364.78;10266655;28;20050;-71
2023/04/27 01:52:28;;;;;;;3.63;2.83;;;;;;;9.69;48.25;100369.59;10280298;28;20104;-74
2023/04/27 01:57:30;;;;;;;4.68;3.75;;;;;;;9.62;48.43;100380.78;10262544;28;20051;-74
2023/04/27 02:02:32;;;;;;;6.18;2.65;;;;;;;9.58;48.47;100374.00;10306823;28;20066;-75
2023/04/27 02:07:33;;;;;;;6.97;3.15;;;;;;;9.57;48.41;100390.94;10300352;28;20469;-75
2023/04/27 02:12:35;;;;;;;6.53;3.30;;;;;;;9.55;48.46;100383.91;10311646;28;20392;-72
2023/04/27 02:17:37;;;;;;;5.50;3.28;;;;;;;9.50;48.35;100380.75;10310312;28;20172;-72
2023/04/27 02:22:43;;;;;;;4.95;3.15;;;;;;;9.49;48.76;100383.53;10303261;28;20622;-74
2023/04/27 02:27:45;;;;;;;5.88;3.03;;;;;;;9.38;48.82;100373.66;10278985;28;20058;-72
2023/04/27 02:32:47;;;;;;;3.92;2.80;;;;;;;9.44;48.42;100378.53;10308841;28;20058;-75
2023/04/27 02:37:49;;;;;;;4.35;3.20;;;;;;;9.51;48.49;100386.91;10258144;28;20169;-71
2023/04/27 02:42:50;;;;;;;4.22;2.70;;;;;;;9.50;48.44;100387.88;10253722;28;20142;-72
2023/04/27 02:47:52;;;;;;;4.00;2.95;;;;;;;9.52;48.22;100389.47;10269756;28;20050;-72
2023/04/27 02:52:54;;;;;;;5.90;3.80;;;;;;;9.47;48.67;100396.94;10250873;28;20168;-71
2023/04/27 02:57:55;;;;;;;7.40;3.00;;;;;;;9.36;48.43;100389.72;10247122;28;20054;-71
2023/04/27 03:02:57;;;;;;;4.70;2.92;;;;;;;9.30;48.81;100379.56;10270596;28;20050;-72
2023/04/27 03:07:58;;;;;;;6.25;3.80;;;;;;;9.20;49.30;100387.34;10261541;28;20047;-73
2023/04/27 03:12:59;;;;;;;3.78;3.00;;;;;;;9.16;49.18;100383.22;10266390;28;20085;-72
2023/04/27 03:18:01;;;;;;;4.13;2.95;;;;;;;9.12;49.36;100373.78;10266602;28;20284;-70
2023/04/27 03:23:02;;;;;;;5.32;3.30;;;;;;;9.14;49.37;100368.34;10270237;28;20055;-73
2023/04/27 03:28:04;;;;;;;5.35;3.33;;;;;;;9.13;49.66;100370.16;10271807;28;20050;-72
2023/04/27 03:33:05;;;;;;;5.10;3.20;;;;;;;9.13;49.69;100372.81;10266686;28;20552;-72
2023/04/27 03:38:06;;;;;;;4.38;3.15;;;;;;;9.12;49.71;100372.94;10259768;28;20060;-71
2023/04/27 03:43:08;;;;;;;5.43;3.00;;;;;;;9.12;49.73;100362.31;10264996;28;20054;-70
2023/04/27 03:48:09;;;;;;;5.05;3.25;;;;;;;9.14;49.84;100363.91;10270332;28;20034;-73
2023/04/27 03:53:12;;;;;;;6.18;2.92;;;;;;;9.11;49.89;100358.81;10294122;28;20377;-73
2023/04/27 03:58:13;;;;;;;5.72;3.67;;;;;;;9.07;49.70;100367.97;10281439;28;20060;-72
2023/04/27 04:03:15;;;;;;;5.65;3.60;;;;;;;8.99;50.05;100372.97;10273807;28;20456;-72
2023/04/27 04:08:17;;;;;;;5.25;3.20;;;;;;;9.00;49.97;100378.16;10271718;28;20414;-69
2023/04/27 04:13:18;;;;;;;6.18;3.45;;;;;;;9.02;49.74;100386.00;10271077;28;20054;-68
2023/04/27 04:18:20;;;;;;;5.30;3.35;;;;;;;9.02;49.96;100378.91;10250813;28;20527;-71
2023/04/27 04:23:21;;;;;;;5.93;3.80;;;;;;;9.01;50.26;100389.66;10265773;28;20760;-72
2023/04/27 04:28:23;;;;;;;4.97;3.83;;;;;;;9.00;50.23;100382.63;10252577;28;20287;-73
2023/04/27 04:33:25;;;;;;;5.20;3.70;;;;;;;9.00;50.58;100382.63;10250326;28;20050;-71
2023/04/27 04:38:26;;;;;;;7.22;4.35;;;;;;;9.00;50.43;100390.59;10267293;28;20061;-72
2023/04/27 04:43:28;;;;;;;4.45;3.50;;;;;;;8.95;50.50;100395.41;10269456;28;20501;-71
2023/04/27 04:48:29;;;;;;;5.93;4.60;;;;;;;8.91;50.64;100397.41;10251107;28;20106;-73
2023/04/27 04:53:30;;;;;;;3.85;3.55;;;;;;;8.79;51.36;100401.78;10269836;28;20066;-74
2023/04/27 04:58:32;;;;;;;7.32;4.03;;;;;;;8.75;51.27;100394.16;10263046;28;20060;-70
2023/04/27 05:03:33;;;;;;;5.70;4.25;;;;;;;8.68;51.91;100399.03;10268963;28;20055;-73
2023/04/27 05:08:36;;;;;;;5.63;3.42;;;;;;;8.64;51.91;100397.56;10296011;28;20078;-75
2023/04/27 05:13:37;;;;;;;5.25;4.72;;;;;;;8.73;51.80;100404.03;10288299;28;20058;-75
2023/04/27 05:18:39;;;;;;;6.15;5.22;;;;;;;8.73;51.38;100407.53;10306610;28;20046;-76
2023/04/27 05:23:41;;;;;;;5.57;3.58;;;;;;;8.77;51.16;100414.31;10297671;28;20066;-75
2023/04/27 05:28:43;;;;;;;6.68;6.05;;;;;;;8.84;51.28;100423.56;10284548;28;20414;-75
2023/04/27 05:33:44;;;;;;;6.55;4.88;;;;;;;8.92;51.11;100419.50;10308213;28;20061;-75
2023/04/27 05:38:45;;;;;;;6.53;3.45;;;;;;;8.98;51.11;100421.72;10294799;28;21308;-73
2023/04/27 05:43:47;;;;;;;8.77;4.10;;;;;;;8.99;51.23;100420.75;10294297;28;20062;-75
2023/04/27 05:48:48;;;;;;;7.32;4.05;;;;;;;9.10;50.87;100428.81;10296717;28;20058;-76
2023/04/27 05:53:52;;;;;;;5.90;3.80;;;;;;;9.26;50.27;100430.34;10282158;28;20053;-74
2023/04/27 05:58:54;;;;;;;6.18;3.30;;;;;;;9.33;50.37;100435.13;10272706;28;20054;-72
2023/04/27 06:04:00;;;;;;;4.55;3.75;;;;;;;9.46;50.30;100448.38;10284950;28;20498;-75
2023/04/27 06:09:01;;;;;;;4.75;3.58;;;;;;;9.67;49.77;100453.09;10286961;28;20391;-78
2023/04/27 06:14:03;;;;;;;9.13;4.22;;;;;;;9.78;49.79;100455.78;10303406;28;20084;-77
2023/04/27 06:19:04;;;;;;;6.03;3.40;;;;;;;9.88;49.02;100451.47;10282687;28;20066;-76
2023/04/27 06:24:05;;;;;;;4.38;3.05;;;;;;;10.03;48.47;100453.97;10282772;28;20297;-76
2023/04/27 06:29:07;;;;;;;4.78;3.45;;;;;;;10.21;48.16;100463.22;10291489;28;20050;-75
2023/04/27 06:34:08;;;;;;;9.80;3.60;;;;;;;10.40;47.90;100459.19;10267784;28;20145;-73
2023/04/27 06:39:10;;;;;;;5.95;3.70;;;;;;;10.62;47.33;100469.03;10285769;28;20073;-74
2023/04/27 06:44:11;;;;;;;7.30;3.53;;;;;;;10.82;46.28;100459.47;10276214;28;20058;-75
2023/04/27 06:49:12;;;;;;;5.22;2.90;;;;;;;10.99;46.27;100462.63;10264189;28;21117;-76
2023/04/27 06:54:15;;;;;;;4.22;3.20;;;;;;;11.11;46.03;100467.00;10275422;28;20047;-76
2023/04/27 06:59:16;;;;;;;4.78;3.20;;;;;;;11.14;46.09;100470.25;10264544;28;20402;-75
2023/04/27 07:04:18;;;;;;;3.60;3.30;;;;;;;11.17;45.50;100461.19;10255078;28;20588;-75
2023/04/27 07:09:20;;;;;;;6.43;2.65;;;;;;;11.26;45.83;100467.56;10267353;28;21770;-76
2023/04/27 07:14:26;;;;;;;3.85;2.72;;;;;;;11.36;45.20;100465.88;10255962;28;20046;-73
2023/04/27 07:19:28;;;;;;;3.72;3.03;;;;;;;11.65;45.16;100463.53;10252110;28;20071;-76
2023/04/27 07:24:29;;;;;;;5.45;3.00;;;;;;;11.74;44.76;100479.72;10271863;28;20058;-75
2023/04/27 07:29:32;;;;;;;5.40;3.13;;;;;;;11.91;44.61;100467.69;10266969;28;20062;-74
2023/04/27 07:34:34;;;;;;;5.90;3.08;;;;;;;12.05;43.86;100470.06;10276907;28;20077;-75
2023/04/27 07:39:54;;;;;;;4.78;3.22;;;;;;;12.10;44.39;100456.34;10268051;28;20042;-75
2023/04/27 07:44:56;;;;;;;3.63;3.05;;;;;;;12.33;45.06;100460.59;10290944;28;20077;-76
2023/04/27 07:49:57;;;;;;;5.22;2.67;;;;;;;12.54;44.86;100465.94;10296282;28;20530;-73
2023/04/27 07:54:58;;;;;;;5.43;2.72;;;;;;;12.93;45.71;100467.16;10292697;28;20105;-72
2023/04/27 08:00:01;;;;;;;3.97;2.58;;;;;;;12.89;43.28;100453.19;10274768;28;20050;-73
2023/04/27 08:05:02;;;;;;;6.85;3.28;;;;;;;13.08;42.99;100452.44;10282000;28;20137;-73
2023/04/27 08:10:06;;;;;;;2.78;2.53;;;;;;;13.31;42.28;100465.59;10276017;28;20517;-73
2023/04/27 08:15:09;;;;;;;4.37;2.77;;;;;;;13.48;41.70;100453.41;10272728;28;20055;-74
2023/04/27 08:20:11;;;;;;;4.28;2.25;;;;;;;13.53;40.07;100446.69;10256754;28;20056;-73
2023/04/27 08:25:12;;;;;;;6.40;2.65;;;;;;;13.67;39.89;100458.81;10273551;28;20138;-74
2023/04/27 08:30:14;;;;;;;4.47;1.95;;;;;;;13.74;41.26;100443.06;10273733;28;20054;-74
2023/04/27 08:35:16;;;;;;;5.20;2.78;;;;;;;13.77;41.33;100443.59;10268877;28;20173;-74
2023/04/27 08:40:18;;;;;;;6.38;2.88;;;;;;;13.82;40.02;100439.69;10270073;28;20061;-76
2023/04/27 08:45:21;;;;;;;3.47;2.58;;;;;;;14.11;40.20;100440.53;10309414;28;20150;-76
2023/04/27 08:50:23;;;;;;;5.72;3.55;;;;;;;14.40;39.79;100445.00;10294606;28;20058;-73
2023/04/27 08:55:24;;;;;;;6.75;3.38;;;;;;;14.59;38.98;100443.25;10280973;28;20066;-74
2023/04/27 09:00:26;;;;;;;3.67;2.38;;;;;;;14.81;38.85;100442.94;10280995;28;20716;-75
2023/04/27 09:05:27;;;;;;;6.32;2.90;;;;;;;14.96;39.36;100440.63;10274148;28;20284;-75
2023/04/27 09:10:29;;;;;;;5.03;2.85;;;;;;;15.31;38.36;100438.19;10277137;28;21212;-77
2023/04/27 09:15:40;;;;;;;5.35;2.83;;;;;;;15.57;37.44;100441.00;10264125;28;20062;-75
2023/04/27 09:20:47;;;;;;;6.75;3.10;;;;;;;15.73;36.95;100440.31;10273357;28;20046;-75
2023/04/27 09:25:48;;;;;;;4.80;2.75;;;;;;;16.01;36.44;100429.56;10264634;28;20046;-75
2023/04/27 09:30:54;;;;;;;5.15;2.85;;;;;;;16.20;36.89;100423.16;10279015;28;20089;-75
2023/04/27 09:35:58;;;;;;;6.53;3.30;;;;;;;16.55;36.19;100421.38;10288741;28;20158;-77
2023/04/27 09:41:00;;;;;;;4.63;2.92;;;;;;;17.04;35.88;100432.44;10310218;28;20205;-74
2023/04/27 09:46:03;;;;;;;4.15;3.13;;;;;;;17.26;35.45;100420.25;10317760;28;20383;-73
2023/04/27 09:51:04;;;;;;;5.53;3.10;;;;;;;17.60;34.41;100415.78;10279397;28;20140;-74
2023/04/27 09:56:29;;;;;;;7.30;3.10;;;;;;;17.79;33.42;100406.53;10275422;28;20058;-73
2023/04/27 10:01:37;;;;;;;5.22;2.88;;;;;;;18.01;33.39;100408.63;10271924;28;20050;-71
2023/04/27 10:06:51;;;;;;;4.22;2.85;;;;;;;18.28;33.75;100398.50;10269807;28;20050;-72
2023/04/27 10:11:54;;;;;;;3.92;2.90;;;;;;;18.83;31.27;100385.25;10272812;28;20046;-73
2023/04/27 10:16:57;;;;;;;6.72;3.35;;;;;;;19.35;31.15;100383.81;10269717;28;20204;-75
2023/04/27 10:22:04;;;;;;;9.02;3.85;;;;;;;20.40;29.84;100382.34;10272421;28;20308;-75
2023/04/27 10:27:07;;;;;;;12.32;4.38;;;;;;;24.18;23.81;100382.94;10268503;28;20046;-73
2023/04/27 10:32:24;;;;;;;5.65;3.00;;;;;;;25.73;22.64;100376.78;10268628;28;20065;-72
2023/04/27 10:37:41;;;;;;;4.72;2.63;;;;;;;23.46;24.36;100383.50;10248797;28;20606;-73
2023/04/27 10:42:44;;;;;;;4.97;3.22;;;;;;;22.90;25.10;100373.66;10254287;28;20046;-75
2023/04/27 10:47:45;;;;;;;4.60;2.67;;;;;;;23.04;25.60;100368.28;10267564;28;20154;-75
2023/04/27 10:52:47;;;;;;;4.88;3.17;;;;;;;23.16;25.50;100363.13;10237802;28;20145;-71
2023/04/27 10:57:50;;;;;;;4.72;2.80;;;;;;;23.86;23.41;100361.00;10270158;28;21577;-74
2023/04/27 11:02:54;;;;;;;5.88;2.88;;;;;;;24.63;22.71;100366.78;10252843;28;20062;-75
2023/04/27 11:08:10;;;;;;;6.20;2.45;;;;;;;24.39;23.45;100349.22;10274368;28;20508;-75
2023/04/27 11:13:14;;;;;;;8.68;2.80;;;;;;;24.63;23.48;100347.75;10262660;28;20106;-74
2023/04/27 11:18:17;;;;;;;5.68;2.38;;;;;;;25.14;21.74;100342.53;10268838;28;20058;-74
2023/04/27 11:23:35;;;;;;;9.77;3.63;;;;;;;26.14;20.80;100332.81;10263672;28;20141;-73
2023/04/27 11:28:37;;;;;;;6.88;2.70;;;;;;;26.75;20.76;100342.94;10264010;28;20058;-75
2023/04/27 11:33:47;;;;;;;9.30;3.00;;;;;;;25.94;21.60;100333.81;10257172;28;20177;-73
2023/04/27 11:38:48;;;;;;;4.55;2.65;;;;;;;25.12;22.44;100325.56;10246483;28;20062;-76
2023/04/27 11:43:50;;;;;;;6.57;4.05;;;;;;;24.63;23.53;100327.88;10255410;28;20065;-77
2023/04/27 11:48:51;;;;;;;5.85;3.17;;;;;;;24.20;22.05;100318.31;10259301;28;20117;-75
2023/04/27 11:53:53;;;;;;;5.40;2.88;;;;;;;24.35;24.01;100309.94;10252572;28;20565;-75
2023/04/27 11:58:55;;;;;;;5.65;2.65;;;;;;;24.25;23.23;100304.91;10241970;28;20061;-75
2023/04/27 12:03:56;;;;;;;6.00;2.43;;;;;;;24.23;22.54;100295.28;10267346;28;20460;-75
2023/04/27 12:09:03;;;;;;;8.25;2.72;;;;;;;24.42;22.75;100293.56;10242550;28;20433;-75
2023/04/27 12:14:04;;;;;;;6.97;4.47;;;;;;;23.96;23.10;100296.19;10258455;28;20050;-75
2023/04/27 12:19:06;;;;;;;6.67;3.40;;;;;;;24.08;23.57;100293.66;10259402;28;20058;-76
2023/04/27 12:24:07;;;;;;;5.97;3.20;;;;;;;24.06;23.78;100294.91;10275971;28;20050;-75
2023/04/27 12:29:09;;;;;;;4.10;2.55;;;;;;;24.09;22.93;100280.91;10280295;28;20054;-76
2023/04/27 12:34:10;;;;;;;6.93;3.78;;;;;;;23.93;23.18;100274.84;10281879;28;20389;-74
2023/04/27 12:39:17;;;;;;;6.25;2.58;;;;;;;23.76;23.93;100268.13;10263483;28;20101;-74
2023/04/27 12:44:20;;;;;;;11.85;3.63;;;;;;;23.73;25.18;100268.56;10264574;28;20521;-74
2023/04/27 12:49:21;;;;;;;10.50;3.40;;;;;;;23.64;25.45;100265.22;10278977;28;20061;-74
2023/04/27 12:54:22;;;;;;;6.85;4.10;;;;;;;23.73;25.67;100269.38;10289337;28;20062;-75
2023/04/27 12:59:24;;;;;;;6.00;3.40;;;;;;;23.62;24.94;100262.72;10264708;28;20051;-74
2023/04/27 13:04:27;;;;;;;4.93;2.40;;;;;;;23.36;24.46;100252.69;10264378;28;20779;-73
2023/04/27 13:09:28;;;;;;;;;;;;;;;23.15;24.57;100255.56;10275219;28;20986;-75
2023/04/27 13:14:32;;;;;;;6.10;3.30;;;;;;;23.01;25.32;100243.81;10289707;28;19937;-75
2023/04/27 13:19:33;;;;;;;3.50;2.88;;;;;;;23.00;25.59;100242.13;10314876;28;20042;-75
2023/04/27 13:24:35;;;;;;;7.35;5.07;;;;;;;23.09;25.84;100247.22;10314700;28;20050;-75
2023/04/27 13:29:37;;;;;;;6.70;3.60;;;;;;;22.89;26.33;100238.97;10288462;28;20445;-77
2023/04/27 13:34:38;;;;;;;7.45;3.20;;;;;;;22.97;25.32;100237.13;10268032;28;20057;-74
2023/04/27 13:39:39;;;;;;;5.55;4.10;;;;;;;21.74;26.82;100244.03;10272362;28;20176;-74
2023/04/27 13:44:41;;;;;;;15.30;3.95;;;;;;;21.89;26.81;100236.63;10272638;28;20126;-75
2023/04/27 13:49:42;;;;;;;5.10;4.55;;;;;;;21.85;26.56;100218.25;10268656;28;20050;-73
2023/04/27 13:54:44;;;;;;;12.55;5.95;;;;;;;21.87;26.93;100227.88;10272965;28;20057;-75
2023/04/27 13:59:45;;;;;;;9.40;3.53;;;;;;;21.79;26.57;100230.72;10272725;28;20121;-73
2023/04/27 14:04:47;;;;;;;7.80;3.28;;;;;;;21.78;25.71;100220.91;10256981;28;20360;-73
2023/04/27 14:09:49;;;;;;;6.03;3.22;;;;;;;21.65;25.98;100223.56;10267563;28;20137;-74
2023/04/27 14:14:50;;;;;;;6.70;2.80;;;;;;;21.46;25.91;100225.84;10256969;28;20208;-73
2023/04/27 14:19:52;;;;;;;7.53;3.00;;;;;;;21.25;27.20;100224.00;10274044;28;20799;-73
2023/04/27 14:24:55;;;;;;;9.85;3.67;;;;;;;20.91;27.66;100224.72;10250737;28;20202;-73
2023/04/27 14:29:56;;;;;;;16.67;4.88;;;;;;;20.52;28.46;100212.38;10278515;28;20137;-74
2023/04/27 14:34:58;;;;;;;5.35;3.10;;;;;;;20.38;28.65;100209.53;10272429;28;20280;-73
2023/04/27 14:39:59;;;;;;;5.45;3.10;;;;;;;20.02;28.58;100213.00;10276075;28;20161;-74
2023/04/27 14:45:01;;;;;;;5.82;3.42;;;;;;;20.05;29.55;100223.44;10260655;28;20205;-74
2023/04/27 14:50:03;;;;;;;159.15;28.55;;;;;;;20.02;29.57;100220.28;10280906;28;20065;-76
2023/04/27 14:55:05;;;;;;;59.38;11.27;;;;;;;20.00;29.70;100217.75;10278377;28;20152;-74
2023/04/27 15:00:13;;;;;;;6.13;3.63;;;;;;;19.87;29.43;100218.38;10282679;28;20140;-73
2023/04/27 15:05:14;;;;;;;9.35;3.38;;;;;;;19.89;29.54;100223.59;10269019;28;20057;-75
2023/04/27 15:10:16;;;;;;;6.05;3.22;;;;;;;19.92;29.85;100218.69;10284583;28;20101;-73
2023/04/27 15:15:17;;;;;;;3.80;2.65;;;;;;;19.81;30.21;100212.91;10270115;28;20057;-72
2023/04/27 15:20:19;;;;;;;7.10;3.30;;;;;;;19.81;29.53;100211.03;10251611;28;20081;-75
2023/04/27 15:25:21;;;;;;;4.35;2.50;;;;;;;19.73;29.85;100203.81;10255848;28;20050;-75
2023/04/27 15:30:22;;;;;;;5.07;2.75;;;;;;;19.59;30.06;100188.44;10272378;28;20639;-76
2023/04/27 15:35:23;;;;;;;7.70;2.70;;;;;;;19.40;30.46;100182.53;10256971;28;20046;-74
2023/04/27 15:40:25;;;;;;;4.60;2.58;;;;;;;19.42;30.49;100183.19;10273645;28;20064;-74
2023/04/27 15:45:28;;;;;;;4.70;2.53;;;;;;;19.22;30.16;100164.00;10268625;28;20577;-74
2023/04/27 15:50:29;;;;;;;5.93;2.88;;;;;;;19.22;30.16;100157.75;10270538;28;20527;-73
2023/04/27 15:55:31;;;;;;;3.05;2.67;;;;;;;19.21;30.52;100158.78;10268489;28;20076;-73
2023/04/27 16:00:33;;;;;;;5.55;2.70;;;;;;;19.17;31.15;100152.06;10267241;28;20054;-76
2023/04/27 16:05:35;;;;;;;5.10;2.97;;;;;;;19.14;30.88;100147.88;10254674;28;21674;-73
2023/04/27 16:10:37;;;;;;;7.40;3.20;;;;;;;18.94;30.69;100120.56;10255165;28;20857;-80
2023/04/27 16:15:38;;;;;;;3.05;2.50;;;;;;;18.96;30.28;100128.47;10258540;28;20079;-77
2023/04/27 16:20:39;;;;;;;4.13;2.35;;;;;;;18.87;30.44;100125.00;10275555;28;20129;-75
2023/04/27 16:25:41;;;;;;;5.95;2.47;;;;;;;18.90;30.82;100130.06;10268362;28;20129;-75
2023/04/27 16:30:42;;;;;;;4.97;2.60;;;;;;;18.93;30.67;100137.78;10272985;28;20502;-74
2023/04/27 16:35:44;;;;;;;3.60;2.17;;;;;;;18.77;30.76;100132.47;10266451;28;20465;-77
2023/04/27 16:40:45;;;;;;;7.68;2.72;;;;;;;18.68;30.86;100121.75;10271624;28;20058;-77
2023/04/27 16:45:47;;;;;;;3.80;1.75;;;;;;;18.59;30.88;100117.44;10285050;28;20135;-77
2023/04/27 16:50:48;;;;;;;3.83;1.60;;;;;;;18.48;31.80;100120.53;10268890;28;20057;-76
2023/04/27 16:55:50;;;;;;;3.60;1.42;;;;;;;18.37;31.95;100132.56;10253713;28;20108;-77
2023/04/27 17:00:51;;;;;;;3.58;1.50;;;;;;;18.37;32.23;100136.13;10269045;28;20057;-77
2023/04/27 17:05:52;;;;;;;2.63;1.95;;;;;;;18.31;31.33;100138.66;10269862;28;20081;-71
2023/04/27 17:10:54;;;;;;;2.78;1.50;;;;;;;18.31;32.00;100144.03;10275031;28;20046;-72
2023/04/27 17:15:56;;;;;;;3.33;1.40;;;;;;;18.24;31.85;100137.69;10266473;28;20046;-69
2023/04/27 17:20:57;;;;;;;4.07;1.63;;;;;;;18.19;31.50;100136.38;10266507;28;20057;-70
2023/04/27 17:25:59;;;;;;;4.55;1.63;;;;;;;18.13;31.61;100136.22;10265881;28;20818;-71
2023/04/27 17:31:00;;;;;;;5.68;2.15;;;;;;;18.08;32.02;100122.47;10267888;28;20046;-69
2023/04/27 17:36:02;;;;;;;3.72;1.90;;;;;;;18.03;32.25;100131.06;10251267;28;20059;-68
2023/04/27 17:41:03;;;;;;;3.72;1.63;;;;;;;17.95;32.58;100126.53;10265573;28;20063;-71
2023/04/27 17:46:08;;;;;;;7.32;1.88;;;;;;;17.93;33.55;100125.03;10269590;28;20592;-70
2023/04/27 17:51:10;;;;;;;8.18;5.88;;;;;;;17.79;33.29;100129.25;10269426;28;20043;-71
2023/04/27 17:56:11;;;;;;;5.90;4.72;;;;;;;17.76;34.01;100132.28;10256975;28;20057;-72
2023/04/27 18:01:12;;;;;;;4.63;3.25;;;;;;;17.69;34.78;100125.94;10270852;28;20136;-71
2023/04/27 18:06:14;;;;;;;4.30;2.30;;;;;;;17.62;34.74;100129.31;10265668;28;20105;-71
2023/04/27 18:11:15;;;;;;;4.72;2.30;;;;;;;17.62;35.31;100132.00;10270653;28;20384;-73
2023/04/27 18:16:17;;;;;;;6.72;3.53;;;;;;;17.57;35.68;100130.84;10282148;28;20050;-73
2023/04/27 18:21:18;;;;;;;4.90;3.25;;;;;;;17.52;34.92;100130.50;10269765;28;20104;-73
2023/04/27 18:26:20;;;;;;;4.00;3.05;;;;;;;17.39;34.85;100117.59;10262985;28;20161;-74
2023/04/27 18:31:23;;;;;;;8.82;2.97;;;;;;;17.31;35.07;100129.22;10259087;28;20054;-72
2023/04/27 18:36:26;;;;;;;5.88;2.78;;;;;;;17.21;35.46;100124.00;10263480;28;20100;-70
2023/04/27 18:41:27;;;;;;;5.68;2.67;;;;;;;17.12;35.09;100111.59;10267144;28;20084;-74
2023/04/27 18:46:29;;;;;;;3.30;2.15;;;;;;;17.05;35.87;100105.19;10240262;28;20057;-72
2023/04/27 18:51:31;;;;;;;5.25;2.70;;;;;;;16.99;36.35;100105.88;10263573;28;20470;-72
2023/04/27 18:56:33;;;;;;;4.10;2.58;;;;;;;16.98;36.97;100128.38;10261877;28;20058;-75
2023/04/27 19:01:36;;;;;;;4.55;3.20;;;;;;;16.93;37.19;100143.19;10247726;28;20050;-74
2023/04/27 19:06:38;;;;;;;7.23;3.20;;;;;;;16.79;36.52;100144.66;10262592;28;20050;-73
2023/04/27 19:11:39;;;;;;;7.10;3.90;;;;;;;16.72;37.13;100135.59;10270637;28;20054;-74
2023/04/27 19:16:41;;;;;;;5.82;3.67;;;;;;;16.69;37.20;100146.66;10263282;28;20898;-73
2023/04/27 19:21:43;;;;;;;6.75;3.67;;;;;;;16.66;37.17;100144.28;10261759;28;20353;-72
2023/04/27 19:26:45;;;;;;;6.22;3.65;;;;;;;16.59;37.64;100144.13;10261244;28;20065;-76
2023/04/27 19:31:47;;;;;;;4.32;3.55;;;;;;;16.60;37.27;100139.59;10247459;28;20053;-78
2023/04/27 19:36:48;;;;;;;6.97;4.85;;;;;;;16.52;37.61;100139.59;10249856;28;20510;-74
2023/04/27 19:41:50;;;;;;;6.22;3.65;;;;;;;16.45;38.23;100131.34;10268337;28;20675;-77
2023/04/27 19:46:51;;;;;;;6.50;4.57;;;;;;;16.39;38.41;100129.31;10278193;28;20168;-76
2023/04/27 19:51:53;;;;;;;6.30;3.70;;;;;;;16.40;38.54;100139.88;10248968;28;20563;-75
2023/04/27 19:56:54;;;;;;;5.53;3.65;;;;;;;16.28;38.44;100124.25;10269995;28;20053;-74
2023/04/27 20:01:56;;;;;;;5.78;3.35;;;;;;;16.27;38.52;100126.09;10245954;28;20386;-72
2023/04/27 20:06:57;;;;;;;6.07;4.10;;;;;;;16.21;38.19;100118.69;10242305;28;20053;-73
2023/04/27 20:11:59;;;;;;;4.43;3.13;;;;;;;16.19;38.51;100116.16;10257877;28;20820;-72
2023/04/27 20:17:01;;;;;;;5.35;3.30;;;;;;;16.14;38.05;100125.72;10247393;28;20064;-73
2023/04/27 20:22:03;;;;;;;6.18;3.47;;;;;;;16.07;38.23;100114.78;10265596;28;20050;-72
2023/04/27 20:27:05;;;;;;;4.35;3.22;;;;;;;16.05;38.46;100124.88;10268817;28;20070;-74
2023/04/27 20:32:07;;;;;;;7.13;2.97;;;;;;;16.00;39.11;100117.28;10265138;28;20085;-74
2023/04/27 20:37:09;;;;;;;3.50;3.20;;;;;;;15.99;38.74;100104.00;10285149;28;20046;-72
2023/04/27 20:42:11;;;;;;;6.55;3.55;;;;;;;15.95;39.28;100108.03;10256757;28;20142;-73
2023/04/27 20:47:13;;;;;;;4.45;3.30;;;;;;;15.88;39.41;100100.63;10274262;28;20057;-73
2023/04/27 20:52:15;;;;;;;4.97;3.35;;;;;;;15.83;39.63;100094.06;10275356;28;20055;-73
2023/04/27 20:57:16;;;;;;;4.18;3.10;;;;;;;15.77;39.94;100095.50;10259569;28;20107;-73
2023/04/27 21:02:18;;;;;;;6.72;3.72;;;;;;;15.77;39.97;100100.06;10263232;28;20046;-73
2023/04/27 21:07:19;;;;;;;4.30;3.47;;;;;;;15.69;40.26;100098.19;10273847;28;20054;-73
2023/04/27 21:12:21;;;;;;;6.13;4.10;;;;;;;15.64;40.47;100104.03;10272427;28;20059;-73
2023/04/27 21:17:24;;;;;;;4.60;3.75;;;;;;;15.64;40.62;100097.81;10271095;28;20061;-70
2023/04/27 21:22:25;;;;;;;5.85;3.88;;;;;;;15.57;40.45;100089.56;10273153;28;20053;-74
2023/04/27 21:27:27;;;;;;;5.03;3.78;;;;;;;15.54;40.76;100087.22;10275751;28;20046;-74
2023/04/27 21:32:28;;;;;;;5.40;4.07;;;;;;;15.51;40.93;100080.31;10243468;28;20208;-73
2023/04/27 21:37:30;;;;;;;6.28;3.45;;;;;;;15.42;41.27;100065.19;10273243;28;20054;-74
2023/04/27 21:42:31;;;;;;;4.00;3.38;;;;;;;15.43;41.06;100074.88;10274979;28;20541;-72
2023/04/27 21:47:33;;;;;;;8.63;4.18;;;;;;;15.37;41.20;100067.47;10253207;28;20065;-71
2023/04/27 21:52:34;;;;;;;6.40;3.50;;;;;;;15.33;41.78;100069.66;10265415;28;20047;-73
2023/04/27 21:57:36;;;;;;;5.82;3.88;;;;;;;15.28;41.70;100060.41;10263747;28;20051;-73
2023/04/27 22:02:41;;;;;;;6.28;3.28;;;;;;;15.26;41.47;100065.91;10261451;28;20141;-73
2023/04/27 22:07:44;;;;;;;4.22;3.38;;;;;;;15.19;41.67;100057.69;10256070;28;20055;-73
2023/04/27 22:12:46;;;;;;;10.90;3.95;;;;;;;15.17;41.71;100065.03;10263851;28;20050;-73
2023/04/27 22:17:48;;;;;;;4.30;3.38;;;;;;;15.20;41.73;100059.34;10268265;28;20477;-73
2023/04/27 22:22:50;;;;;;;4.60;3.20;;;;;;;15.19;41.73;100070.22;10251379;28;20050;-72
2023/04/27 22:27:51;;;;;;;6.13;3.75;;;;;;;15.12;42.08;100053.94;10268675;28;20051;-72
2023/04/27 22:32:53;;;;;;;5.38;3.67;;;;;;;15.09;41.98;100038.19;10284506;28;20058;-74
2023/04/27 22:37:55;;;;;;;4.43;3.65;;;;;;;15.08;42.64;100036.47;10288481;28;20279;-72
2023/04/27 22:42:56;;;;;;;3.95;3.15;;;;;;;15.01;42.93;100044.34;10292196;28;20050;-73
2023/04/27 22:47:57;;;;;;;6.15;3.63;;;;;;;14.95;43.22;100036.94;10305221;28;20069;-73
2023/04/27 22:52:59;;;;;;;5.22;2.92;;;;;;;14.95;43.35;100036.06;10302881;28;20153;-72
2023/04/27 22:58:01;;;;;;;4.80;4.25;;;;;;;14.92;43.63;100047.09;10276220;28;20081;-72
2023/04/27 23:03:02;;;;;;;5.65;3.78;;;;;;;14.87;43.82;100046.75;10279333;28;20065;-74
2023/04/27 23:08:04;;;;;;;4.10;3.63;;;;;;;14.81;44.00;100027.59;10270194;28;20243;-73
2023/04/27 23:13:06;;;;;;;5.28;3.38;;;;;;;14.77;44.05;100018.22;10317796;28;20114;-73